sensor_id;sensor_type;location;lat;lon;timestamp;P1;durP1;ratioP1;P2;durP2;ratioP2
50815;SDS011;39717;47.324;8.788;2023-05-31T00:01:39;5.63;;;2.20;;
50815;SDS011;39717;47.324;8.788;2023-05-31T00:04:05;3.43;;;2.53;;
50815;SDS011;39717;47.324;8.788;2023-05-31T00:06:33;5.60;;;2.57;;
50815;SDS011;39717;47.324;8.788;2023-05-31T00:09:00;5.97;;;2.70;;
50815;SDS011;39717;47.324;8.788;2023-05-31T00:11:26;3.10;;;2.73;;
50815;SDS011;39717;47.324;8.788;2023-05-31T00:13:53;4.10;;;3.00;;
50815;SDS011;39717;47.324;8.788;2023-05-31T00:16:19;3.00;;;2.67;;
50815;SDS011;39717;47.324;8.788;2023-05-31T00:18:45;3.50;;;2.70;;
50815;SDS011;39717;47.324;8.788;2023-05-31T00:21:11;3.10;;;2.67;;
50815;SDS011;39717;47.324;8.788;2023-05-31T00:23:38;4.43;;;2.90;;
50815;SDS011;39717;47.324;8.788;2023-05-31T00:26:03;4.30;;;3.03;;
50815;SDS011;39717;47.324;8.788;2023-05-31T00:28:30;5.10;;;2.70;;
50815;SDS011;39717;47.324;8.788;2023-05-31T00:30:55;3.83;;;2.47;;
50815;SDS011;39717;47.324;8.788;2023-05-31T00:33:21;5.13;;;2.63;;
50815;SDS011;39717;47.324;8.788;2023-05-31T00:35:47;3.47;;;2.93;;
50815;SDS011;39717;47.324;8.788;2023-05-31T00:38:13;3.80;;;2.73;;
50815;SDS011;39717;47.324;8.788;2023-05-31T00:40:39;3.30;;;2.87;;
50815;SDS011;39717;47.324;8.788;2023-05-31T00:43:04;3.17;;;2.90;;
50815;SDS011;39717;47.324;8.788;2023-05-31T00:45:31;3.40;;;2.80;;
50815;SDS011;39717;47.324;8.788;2023-05-31T00:48:01;5.37;;;2.73;;
50815;SDS011;39717;47.324;8.788;2023-05-31T00:50:28;4.10;;;2.63;;
50815;SDS011;39717;47.324;8.788;2023-05-31T00:52:54;3.93;;;2.50;;
50815;SDS011;39717;47.324;8.788;2023-05-31T00:55:22;5.17;;;3.07;;
50815;SDS011;39717;47.324;8.788;2023-05-31T00:57:48;4.20;;;2.40;;
50815;SDS011;39717;47.324;8.788;2023-05-31T01:00:15;4.43;;;3.03;;
50815;SDS011;39717;47.324;8.788;2023-05-31T01:02:41;3.83;;;2.57;;
50815;SDS011;39717;47.324;8.788;2023-05-31T01:05:08;4.10;;;2.90;;
50815;SDS011;39717;47.324;8.788;2023-05-31T01:07:34;5.13;;;2.97;;
50815;SDS011;39717;47.324;8.788;2023-05-31T01:10:02;3.10;;;2.77;;
50815;SDS011;39717;47.324;8.788;2023-05-31T01:15:33;4.93;;;3.10;;
50815;SDS011;39717;47.324;8.788;2023-05-31T01:18:17;3.20;;;2.83;;
50815;SDS011;39717;47.324;8.788;2023-05-31T01:20:49;4.33;;;3.20;;
50815;SDS011;39717;47.324;8.788;2023-05-31T01:28:49;3.10;;;2.57;;
50815;SDS011;39717;47.324;8.788;2023-05-31T01:31:18;3.43;;;3.13;;
50815;SDS011;39717;47.324;8.788;2023-05-31T01:33:45;4.40;;;2.73;;
50815;SDS011;39717;47.324;8.788;2023-05-31T01:36:12;5.20;;;3.10;;
50815;SDS011;39717;47.324;8.788;2023-05-31T01:38:39;3.70;;;2.87;;
50815;SDS011;39717;47.324;8.788;2023-05-31T01:41:05;4.30;;;3.03;;
50815;SDS011;39717;47.324;8.788;2023-05-31T01:43:32;4.20;;;3.03;;
50815;SDS011;39717;47.324;8.788;2023-05-31T01:45:59;3.57;;;3.13;;
50815;SDS011;39717;47.324;8.788;2023-05-31T01:48:26;3.10;;;2.57;;
50815;SDS011;39717;47.324;8.788;2023-05-31T01:50:53;4.23;;;2.90;;
50815;SDS011;39717;47.324;8.788;2023-05-31T01:53:20;3.30;;;3.00;;
50815;SDS011;39717;47.324;8.788;2023-05-31T01:55:46;3.10;;;2.73;;
50815;SDS011;39717;47.324;8.788;2023-05-31T01:58:13;4.07;;;2.87;;
50815;SDS011;39717;47.324;8.788;2023-05-31T02:00:40;4.27;;;3.40;;
50815;SDS011;39717;47.324;8.788;2023-05-31T02:03:07;4.60;;;3.30;;
50815;SDS011;39717;47.324;8.788;2023-05-31T02:05:33;4.50;;;2.83;;
50815;SDS011;39717;47.324;8.788;2023-05-31T02:07:59;3.30;;;2.77;;
50815;SDS011;39717;47.324;8.788;2023-05-31T02:10:25;3.90;;;3.03;;
50815;SDS011;39717;47.324;8.788;2023-05-31T02:12:51;5.63;;;2.70;;
50815;SDS011;39717;47.324;8.788;2023-05-31T02:15:20;4.33;;;3.00;;
50815;SDS011;39717;47.324;8.788;2023-05-31T02:17:48;3.27;;;2.60;;
50815;SDS011;39717;47.324;8.788;2023-05-31T02:20:17;3.90;;;3.33;;
50815;SDS011;39717;47.324;8.788;2023-05-31T02:22:44;4.27;;;3.00;;
50815;SDS011;39717;47.324;8.788;2023-05-31T02:25:12;4.87;;;3.23;;
50815;SDS011;39717;47.324;8.788;2023-05-31T02:27:39;3.90;;;3.17;;
50815;SDS011;39717;47.324;8.788;2023-05-31T02:30:06;4.20;;;3.37;;
50815;SDS011;39717;47.324;8.788;2023-05-31T02:32:33;4.13;;;3.10;;
50815;SDS011;39717;47.324;8.788;2023-05-31T02:35:06;3.93;;;2.80;;
50815;SDS011;39717;47.324;8.788;2023-05-31T02:37:33;4.67;;;2.80;;
50815;SDS011;39717;47.324;8.788;2023-05-31T02:40:00;4.40;;;2.97;;
50815;SDS011;39717;47.324;8.788;2023-05-31T02:42:26;4.07;;;2.90;;
50815;SDS011;39717;47.324;8.788;2023-05-31T02:44:52;4.90;;;3.20;;
50815;SDS011;39717;47.324;8.788;2023-05-31T02:47:18;4.23;;;2.80;;
50815;SDS011;39717;47.324;8.788;2023-05-31T02:49:44;3.20;;;2.90;;
50815;SDS011;39717;47.324;8.788;2023-05-31T02:52:10;2.77;;;2.53;;
50815;SDS011;39717;47.324;8.788;2023-05-31T02:54:37;4.97;;;3.43;;
50815;SDS011;39717;47.324;8.788;2023-05-31T02:57:03;4.57;;;2.97;;
50815;SDS011;39717;47.324;8.788;2023-05-31T02:59:29;3.87;;;2.80;;
50815;SDS011;39717;47.324;8.788;2023-05-31T03:01:56;3.90;;;3.10;;
50815;SDS011;39717;47.324;8.788;2023-05-31T03:04:24;4.20;;;3.27;;
50815;SDS011;39717;47.324;8.788;2023-05-31T03:06:50;5.30;;;3.67;;
50815;SDS011;39717;47.324;8.788;2023-05-31T03:09:17;3.50;;;2.90;;
50815;SDS011;39717;47.324;8.788;2023-05-31T03:11:44;4.87;;;2.80;;
50815;SDS011;39717;47.324;8.788;2023-05-31T03:14:10;3.63;;;2.70;;
50815;SDS011;39717;47.324;8.788;2023-05-31T03:16:37;5.70;;;3.40;;
50815;SDS011;39717;47.324;8.788;2023-05-31T03:19:03;4.00;;;2.77;;
50815;SDS011;39717;47.324;8.788;2023-05-31T03:21:29;4.70;;;3.27;;
50815;SDS011;39717;47.324;8.788;2023-05-31T03:23:55;5.37;;;2.90;;
50815;SDS011;39717;47.324;8.788;2023-05-31T03:26:21;3.50;;;2.80;;
50815;SDS011;39717;47.324;8.788;2023-05-31T03:28:47;4.43;;;3.03;;
50815;SDS011;39717;47.324;8.788;2023-05-31T03:31:13;4.87;;;3.30;;
50815;SDS011;39717;47.324;8.788;2023-05-31T03:33:40;3.47;;;2.87;;
50815;SDS011;39717;47.324;8.788;2023-05-31T03:36:06;4.60;;;2.90;;
50815;SDS011;39717;47.324;8.788;2023-05-31T03:38:33;3.43;;;2.93;;
50815;SDS011;39717;47.324;8.788;2023-05-31T03:40:59;5.00;;;3.73;;
50815;SDS011;39717;47.324;8.788;2023-05-31T03:43:25;4.00;;;3.20;;
50815;SDS011;39717;47.324;8.788;2023-05-31T03:45:51;4.30;;;3.33;;
50815;SDS011;39717;47.324;8.788;2023-05-31T03:48:17;5.10;;;3.20;;
50815;SDS011;39717;47.324;8.788;2023-05-31T03:50:44;5.10;;;3.20;;
50815;SDS011;39717;47.324;8.788;2023-05-31T03:53:10;6.77;;;3.93;;
50815;SDS011;39717;47.324;8.788;2023-05-31T03:55:36;7.13;;;3.03;;
50815;SDS011;39717;47.324;8.788;2023-05-31T03:58:02;4.83;;;3.33;;
50815;SDS011;39717;47.324;8.788;2023-05-31T04:00:28;3.40;;;3.10;;
50815;SDS011;39717;47.324;8.788;2023-05-31T04:02:55;7.50;;;3.37;;
50815;SDS011;39717;47.324;8.788;2023-05-31T04:05:21;4.90;;;3.80;;
50815;SDS011;39717;47.324;8.788;2023-05-31T04:07:47;4.07;;;3.43;;
50815;SDS011;39717;47.324;8.788;2023-05-31T04:10:14;6.13;;;3.70;;
50815;SDS011;39717;47.324;8.788;2023-05-31T04:12:40;4.50;;;3.40;;
50815;SDS011;39717;47.324;8.788;2023-05-31T04:15:07;5.57;;;3.90;;
50815;SDS011;39717;47.324;8.788;2023-05-31T04:17:33;3.47;;;3.10;;
50815;SDS011;39717;47.324;8.788;2023-05-31T04:19:59;5.53;;;3.40;;
50815;SDS011;39717;47.324;8.788;2023-05-31T04:22:25;6.33;;;3.40;;
50815;SDS011;39717;47.324;8.788;2023-05-31T04:24:51;4.33;;;3.57;;
50815;SDS011;39717;47.324;8.788;2023-05-31T04:27:17;4.20;;;3.30;;
50815;SDS011;39717;47.324;8.788;2023-05-31T04:29:47;4.77;;;3.37;;
50815;SDS011;39717;47.324;8.788;2023-05-31T04:32:16;4.37;;;3.27;;
50815;SDS011;39717;47.324;8.788;2023-05-31T04:34:42;5.03;;;3.40;;
50815;SDS011;39717;47.324;8.788;2023-05-31T04:37:08;7.10;;;4.07;;
50815;SDS011;39717;47.324;8.788;2023-05-31T04:39:36;4.63;;;3.33;;
50815;SDS011;39717;47.324;8.788;2023-05-31T04:42:03;4.90;;;3.63;;
50815;SDS011;39717;47.324;8.788;2023-05-31T04:44:30;4.40;;;3.30;;
50815;SDS011;39717;47.324;8.788;2023-05-31T04:46:56;4.70;;;3.40;;
50815;SDS011;39717;47.324;8.788;2023-05-31T04:49:23;4.43;;;3.40;;
50815;SDS011;39717;47.324;8.788;2023-05-31T04:51:49;5.07;;;3.73;;
50815;SDS011;39717;47.324;8.788;2023-05-31T04:54:15;3.90;;;3.43;;
50815;SDS011;39717;47.324;8.788;2023-05-31T04:56:41;5.53;;;4.00;;
50815;SDS011;39717;47.324;8.788;2023-05-31T04:59:08;6.10;;;3.80;;
50815;SDS011;39717;47.324;8.788;2023-05-31T05:01:34;7.07;;;3.50;;
50815;SDS011;39717;47.324;8.788;2023-05-31T05:04:01;4.53;;;3.70;;
50815;SDS011;39717;47.324;8.788;2023-05-31T05:06:27;4.47;;;3.50;;
50815;SDS011;39717;47.324;8.788;2023-05-31T05:08:53;5.43;;;3.57;;
50815;SDS011;39717;47.324;8.788;2023-05-31T05:11:20;4.50;;;3.37;;
50815;SDS011;39717;47.324;8.788;2023-05-31T05:13:46;7.00;;;4.03;;
50815;SDS011;39717;47.324;8.788;2023-05-31T05:16:12;7.40;;;4.13;;
50815;SDS011;39717;47.324;8.788;2023-05-31T05:18:39;4.77;;;3.73;;
50815;SDS011;39717;47.324;8.788;2023-05-31T05:21:06;4.60;;;3.57;;
50815;SDS011;39717;47.324;8.788;2023-05-31T05:23:32;5.40;;;3.40;;
50815;SDS011;39717;47.324;8.788;2023-05-31T05:26:00;5.47;;;3.80;;
50815;SDS011;39717;47.324;8.788;2023-05-31T05:28:27;5.20;;;3.50;;
50815;SDS011;39717;47.324;8.788;2023-05-31T05:30:53;5.33;;;3.70;;
50815;SDS011;39717;47.324;8.788;2023-05-31T05:33:19;4.77;;;3.63;;
50815;SDS011;39717;47.324;8.788;2023-05-31T05:35:46;6.40;;;3.90;;
50815;SDS011;39717;47.324;8.788;2023-05-31T05:38:12;6.13;;;4.00;;
50815;SDS011;39717;47.324;8.788;2023-05-31T05:40:38;4.83;;;3.77;;
50815;SDS011;39717;47.324;8.788;2023-05-31T05:43:04;4.90;;;3.57;;
50815;SDS011;39717;47.324;8.788;2023-05-31T05:45:31;5.60;;;3.60;;
50815;SDS011;39717;47.324;8.788;2023-05-31T05:47:57;8.67;;;5.17;;
50815;SDS011;39717;47.324;8.788;2023-05-31T05:50:23;7.20;;;4.07;;
50815;SDS011;39717;47.324;8.788;2023-05-31T05:52:49;7.07;;;4.73;;
50815;SDS011;39717;47.324;8.788;2023-05-31T05:55:16;4.13;;;3.57;;
50815;SDS011;39717;47.324;8.788;2023-05-31T05:57:42;5.90;;;3.60;;
50815;SDS011;39717;47.324;8.788;2023-05-31T06:00:08;5.50;;;3.73;;
50815;SDS011;39717;47.324;8.788;2023-05-31T06:02:39;4.40;;;3.20;;
50815;SDS011;39717;47.324;8.788;2023-05-31T06:05:08;4.87;;;3.47;;
50815;SDS011;39717;47.324;8.788;2023-05-31T06:07:34;5.50;;;3.80;;
50815;SDS011;39717;47.324;8.788;2023-05-31T06:10:00;4.03;;;3.60;;
50815;SDS011;39717;47.324;8.788;2023-05-31T06:12:28;4.87;;;3.80;;
50815;SDS011;39717;47.324;8.788;2023-05-31T06:14:57;5.43;;;3.70;;
50815;SDS011;39717;47.324;8.788;2023-05-31T06:17:25;7.40;;;3.93;;
50815;SDS011;39717;47.324;8.788;2023-05-31T06:19:51;4.20;;;3.37;;
50815;SDS011;39717;47.324;8.788;2023-05-31T06:22:17;5.07;;;3.60;;
50815;SDS011;39717;47.324;8.788;2023-05-31T06:24:43;7.00;;;4.23;;
50815;SDS011;39717;47.324;8.788;2023-05-31T06:27:10;6.00;;;3.90;;
50815;SDS011;39717;47.324;8.788;2023-05-31T06:29:37;5.40;;;3.73;;
50815;SDS011;39717;47.324;8.788;2023-05-31T06:32:03;6.40;;;3.80;;
50815;SDS011;39717;47.324;8.788;2023-05-31T06:34:30;4.93;;;3.57;;
50815;SDS011;39717;47.324;8.788;2023-05-31T06:36:56;4.63;;;3.90;;
50815;SDS011;39717;47.324;8.788;2023-05-31T06:39:25;4.37;;;3.27;;
50815;SDS011;39717;47.324;8.788;2023-05-31T06:41:51;7.10;;;3.20;;
50815;SDS011;39717;47.324;8.788;2023-05-31T06:44:17;5.73;;;3.90;;
50815;SDS011;39717;47.324;8.788;2023-05-31T06:46:44;4.13;;;3.30;;
50815;SDS011;39717;47.324;8.788;2023-05-31T06:49:10;4.73;;;4.07;;
50815;SDS011;39717;47.324;8.788;2023-05-31T06:51:37;4.73;;;3.27;;
50815;SDS011;39717;47.324;8.788;2023-05-31T06:54:03;4.70;;;3.80;;
50815;SDS011;39717;47.324;8.788;2023-05-31T06:56:29;3.90;;;3.50;;
50815;SDS011;39717;47.324;8.788;2023-05-31T06:58:55;4.03;;;3.63;;
50815;SDS011;39717;47.324;8.788;2023-05-31T07:01:21;4.33;;;3.67;;
50815;SDS011;39717;47.324;8.788;2023-05-31T07:03:49;5.57;;;3.60;;
50815;SDS011;39717;47.324;8.788;2023-05-31T07:06:15;5.77;;;3.97;;
50815;SDS011;39717;47.324;8.788;2023-05-31T07:08:41;4.17;;;3.50;;
50815;SDS011;39717;47.324;8.788;2023-05-31T07:11:08;6.40;;;4.27;;
50815;SDS011;39717;47.324;8.788;2023-05-31T07:13:34;3.40;;;3.10;;
50815;SDS011;39717;47.324;8.788;2023-05-31T07:16:00;5.47;;;3.50;;
50815;SDS011;39717;47.324;8.788;2023-05-31T07:18:26;4.87;;;3.87;;
50815;SDS011;39717;47.324;8.788;2023-05-31T07:20:52;5.17;;;3.30;;
50815;SDS011;39717;47.324;8.788;2023-05-31T07:23:22;5.07;;;3.60;;
50815;SDS011;39717;47.324;8.788;2023-05-31T07:25:51;3.97;;;3.13;;
50815;SDS011;39717;47.324;8.788;2023-05-31T07:28:18;4.67;;;3.63;;
50815;SDS011;39717;47.324;8.788;2023-05-31T07:30:44;4.17;;;3.33;;
50815;SDS011;39717;47.324;8.788;2023-05-31T07:33:10;3.83;;;3.27;;
50815;SDS011;39717;47.324;8.788;2023-05-31T07:35:36;4.40;;;3.30;;
50815;SDS011;39717;47.324;8.788;2023-05-31T07:38:02;4.87;;;3.57;;
50815;SDS011;39717;47.324;8.788;2023-05-31T07:40:28;3.70;;;3.30;;
50815;SDS011;39717;47.324;8.788;2023-05-31T07:42:54;4.20;;;3.20;;
50815;SDS011;39717;47.324;8.788;2023-05-31T07:45:21;6.63;;;3.67;;
50815;SDS011;39717;47.324;8.788;2023-05-31T07:47:47;4.70;;;3.50;;
50815;SDS011;39717;47.324;8.788;2023-05-31T07:50:13;6.00;;;3.40;;
50815;SDS011;39717;47.324;8.788;2023-05-31T07:52:39;4.40;;;3.33;;
50815;SDS011;39717;47.324;8.788;2023-05-31T07:55:05;3.57;;;3.13;;
50815;SDS011;39717;47.324;8.788;2023-05-31T07:57:32;3.77;;;3.07;;
50815;SDS011;39717;47.324;8.788;2023-05-31T07:59:58;4.83;;;3.63;;
50815;SDS011;39717;47.324;8.788;2023-05-31T08:02:24;5.03;;;4.13;;
50815;SDS011;39717;47.324;8.788;2023-05-31T08:04:50;5.13;;;3.90;;
50815;SDS011;39717;47.324;8.788;2023-05-31T08:07:17;5.33;;;3.47;;
50815;SDS011;39717;47.324;8.788;2023-05-31T08:09:43;5.50;;;3.63;;
50815;SDS011;39717;47.324;8.788;2023-05-31T08:12:09;4.00;;;3.50;;
50815;SDS011;39717;47.324;8.788;2023-05-31T08:14:36;4.17;;;3.07;;
50815;SDS011;39717;47.324;8.788;2023-05-31T08:17:02;4.97;;;3.73;;
50815;SDS011;39717;47.324;8.788;2023-05-31T08:19:28;5.17;;;3.10;;
50815;SDS011;39717;47.324;8.788;2023-05-31T08:21:55;5.60;;;3.20;;
50815;SDS011;39717;47.324;8.788;2023-05-31T08:24:21;3.33;;;2.83;;
50815;SDS011;39717;47.324;8.788;2023-05-31T08:26:47;4.20;;;3.20;;
50815;SDS011;39717;47.324;8.788;2023-05-31T08:29:13;3.10;;;2.80;;
50815;SDS011;39717;47.324;8.788;2023-05-31T08:31:40;3.57;;;3.00;;
50815;SDS011;39717;47.324;8.788;2023-05-31T08:34:06;3.40;;;3.10;;
50815;SDS011;39717;47.324;8.788;2023-05-31T08:36:32;3.97;;;3.50;;
50815;SDS011;39717;47.324;8.788;2023-05-31T08:38:59;4.50;;;3.40;;
50815;SDS011;39717;47.324;8.788;2023-05-31T08:41:25;4.00;;;3.07;;
50815;SDS011;39717;47.324;8.788;2023-05-31T08:43:55;6.63;;;3.47;;
50815;SDS011;39717;47.324;8.788;2023-05-31T08:46:21;4.10;;;2.93;;
50815;SDS011;39717;47.324;8.788;2023-05-31T08:51:14;5.37;;;3.90;;
50815;SDS011;39717;47.324;8.788;2023-05-31T08:53:41;4.33;;;3.30;;
50815;SDS011;39717;47.324;8.788;2023-05-31T08:56:07;4.27;;;3.27;;
50815;SDS011;39717;47.324;8.788;2023-05-31T08:58:34;3.93;;;3.10;;
50815;SDS011;39717;47.324;8.788;2023-05-31T09:01:03;4.27;;;3.13;;
50815;SDS011;39717;47.324;8.788;2023-05-31T09:03:31;4.37;;;2.97;;
50815;SDS011;39717;47.324;8.788;2023-05-31T09:05:58;3.83;;;3.43;;
50815;SDS011;39717;47.324;8.788;2023-05-31T09:08:24;7.73;;;3.40;;
50815;SDS011;39717;47.324;8.788;2023-05-31T09:10:51;4.63;;;3.03;;
50815;SDS011;39717;47.324;8.788;2023-05-31T09:13:17;5.03;;;3.73;;
50815;SDS011;39717;47.324;8.788;2023-05-31T09:15:44;5.20;;;3.73;;
50815;SDS011;39717;47.324;8.788;2023-05-31T09:18:20;5.43;;;2.97;;
50815;SDS011;39717;47.324;8.788;2023-05-31T09:20:47;6.80;;;3.30;;
50815;SDS011;39717;47.324;8.788;2023-05-31T09:23:13;3.20;;;2.87;;
50815;SDS011;39717;47.324;8.788;2023-05-31T09:28:12;4.73;;;2.90;;
50815;SDS011;39717;47.324;8.788;2023-05-31T09:30:38;5.87;;;3.93;;
50815;SDS011;39717;47.324;8.788;2023-05-31T09:33:05;4.17;;;3.17;;
50815;SDS011;39717;47.324;8.788;2023-05-31T09:35:32;5.70;;;3.60;;
50815;SDS011;39717;47.324;8.788;2023-05-31T09:38:03;4.17;;;2.93;;
50815;SDS011;39717;47.324;8.788;2023-05-31T09:40:30;3.53;;;3.17;;
50815;SDS011;39717;47.324;8.788;2023-05-31T09:42:57;4.20;;;3.43;;
50815;SDS011;39717;47.324;8.788;2023-05-31T09:45:23;5.40;;;3.50;;
50815;SDS011;39717;47.324;8.788;2023-05-31T09:47:50;3.63;;;3.00;;
50815;SDS011;39717;47.324;8.788;2023-05-31T09:50:17;5.83;;;3.33;;
50815;SDS011;39717;47.324;8.788;2023-05-31T09:52:44;3.40;;;3.07;;
50815;SDS011;39717;47.324;8.788;2023-05-31T09:55:12;4.40;;;3.63;;
50815;SDS011;39717;47.324;8.788;2023-05-31T09:57:38;3.40;;;3.07;;
50815;SDS011;39717;47.324;8.788;2023-05-31T10:00:09;5.27;;;3.30;;
50815;SDS011;39717;47.324;8.788;2023-05-31T10:02:52;5.37;;;3.33;;
50815;SDS011;39717;47.324;8.788;2023-05-31T10:05:19;4.43;;;3.27;;
50815;SDS011;39717;47.324;8.788;2023-05-31T10:07:52;4.23;;;3.03;;
50815;SDS011;39717;47.324;8.788;2023-05-31T10:10:18;6.57;;;3.90;;
50815;SDS011;39717;47.324;8.788;2023-05-31T10:12:54;5.70;;;3.43;;
50815;SDS011;39717;47.324;8.788;2023-05-31T10:15:23;4.83;;;3.23;;
50815;SDS011;39717;47.324;8.788;2023-05-31T10:17:52;5.27;;;3.43;;
50815;SDS011;39717;47.324;8.788;2023-05-31T10:20:20;3.97;;;3.23;;
50815;SDS011;39717;47.324;8.788;2023-05-31T10:22:48;5.27;;;3.33;;
50815;SDS011;39717;47.324;8.788;2023-05-31T10:25:17;7.47;;;3.77;;
50815;SDS011;39717;47.324;8.788;2023-05-31T10:27:48;3.63;;;3.20;;
50815;SDS011;39717;47.324;8.788;2023-05-31T10:30:16;4.40;;;3.10;;
50815;SDS011;39717;47.324;8.788;2023-05-31T10:32:55;6.30;;;3.03;;
50815;SDS011;39717;47.324;8.788;2023-05-31T10:35:24;3.77;;;3.30;;
50815;SDS011;39717;47.324;8.788;2023-05-31T10:37:51;4.53;;;3.20;;
50815;SDS011;39717;47.324;8.788;2023-05-31T10:40:19;3.90;;;2.83;;
50815;SDS011;39717;47.324;8.788;2023-05-31T10:42:54;3.30;;;2.97;;
50815;SDS011;39717;47.324;8.788;2023-05-31T10:45:34;4.67;;;3.07;;
50815;SDS011;39717;47.324;8.788;2023-05-31T10:48:51;4.37;;;2.73;;
50815;SDS011;39717;47.324;8.788;2023-05-31T10:50:55;5.03;;;3.10;;
50815;SDS011;39717;47.324;8.788;2023-05-31T10:53:22;3.90;;;3.03;;
50815;SDS011;39717;47.324;8.788;2023-05-31T10:55:49;3.33;;;2.80;;
50815;SDS011;39717;47.324;8.788;2023-05-31T10:58:25;5.23;;;3.10;;
50815;SDS011;39717;47.324;8.788;2023-05-31T11:00:55;4.93;;;3.37;;
50815;SDS011;39717;47.324;8.788;2023-05-31T11:03:25;8.00;;;3.50;;
50815;SDS011;39717;47.324;8.788;2023-05-31T11:05:57;4.50;;;3.47;;
50815;SDS011;39717;47.324;8.788;2023-05-31T11:08:29;4.53;;;2.90;;
50815;SDS011;39717;47.324;8.788;2023-05-31T11:13:57;3.33;;;2.63;;
50815;SDS011;39717;47.324;8.788;2023-05-31T11:16:24;5.93;;;3.33;;
50815;SDS011;39717;47.324;8.788;2023-05-31T11:19:36;3.77;;;3.13;;
50815;SDS011;39717;47.324;8.788;2023-05-31T11:21:50;6.17;;;3.03;;
50815;SDS011;39717;47.324;8.788;2023-05-31T11:24:30;4.27;;;2.80;;
50815;SDS011;39717;47.324;8.788;2023-05-31T11:27:00;4.03;;;2.93;;
50815;SDS011;39717;47.324;8.788;2023-05-31T11:32:12;3.93;;;2.90;;
50815;SDS011;39717;47.324;8.788;2023-05-31T11:34:51;3.67;;;3.10;;
50815;SDS011;39717;47.324;8.788;2023-05-31T11:37:28;3.37;;;2.87;;
50815;SDS011;39717;47.324;8.788;2023-05-31T11:39:59;3.90;;;3.27;;
50815;SDS011;39717;47.324;8.788;2023-05-31T11:42:29;2.90;;;2.60;;
50815;SDS011;39717;47.324;8.788;2023-05-31T11:44:56;3.43;;;3.10;;
50815;SDS011;39717;47.324;8.788;2023-05-31T11:47:25;5.07;;;2.90;;
50815;SDS011;39717;47.324;8.788;2023-05-31T11:49:52;4.10;;;2.80;;
50815;SDS011;39717;47.324;8.788;2023-05-31T11:52:19;3.70;;;3.00;;
50815;SDS011;39717;47.324;8.788;2023-05-31T11:54:46;4.10;;;2.90;;
50815;SDS011;39717;47.324;8.788;2023-05-31T11:57:14;4.40;;;3.40;;
50815;SDS011;39717;47.324;8.788;2023-05-31T11:59:42;4.43;;;2.70;;
50815;SDS011;39717;47.324;8.788;2023-05-31T12:02:09;4.83;;;3.70;;
50815;SDS011;39717;47.324;8.788;2023-05-31T12:04:36;4.57;;;2.30;;
50815;SDS011;39717;47.324;8.788;2023-05-31T12:07:03;3.83;;;2.70;;
50815;SDS011;39717;47.324;8.788;2023-05-31T12:09:31;3.57;;;2.83;;
50815;SDS011;39717;47.324;8.788;2023-05-31T12:11:58;4.00;;;3.57;;
50815;SDS011;39717;47.324;8.788;2023-05-31T12:14:26;7.97;;;2.87;;
50815;SDS011;39717;47.324;8.788;2023-05-31T12:16:52;3.30;;;2.73;;
50815;SDS011;39717;47.324;8.788;2023-05-31T12:19:19;3.10;;;2.63;;
50815;SDS011;39717;47.324;8.788;2023-05-31T12:21:45;3.73;;;2.87;;
50815;SDS011;39717;47.324;8.788;2023-05-31T12:24:13;4.33;;;3.27;;
50815;SDS011;39717;47.324;8.788;2023-05-31T12:26:41;5.97;;;2.97;;
50815;SDS011;39717;47.324;8.788;2023-05-31T12:29:10;3.37;;;2.47;;
50815;SDS011;39717;47.324;8.788;2023-05-31T12:31:36;4.37;;;2.90;;
50815;SDS011;39717;47.324;8.788;2023-05-31T12:34:10;2.87;;;2.30;;
50815;SDS011;39717;47.324;8.788;2023-05-31T12:36:47;3.73;;;2.70;;
50815;SDS011;39717;47.324;8.788;2023-05-31T12:39:14;3.23;;;2.60;;
50815;SDS011;39717;47.324;8.788;2023-05-31T12:41:42;4.33;;;2.90;;
50815;SDS011;39717;47.324;8.788;2023-05-31T12:44:09;4.27;;;2.60;;
50815;SDS011;39717;47.324;8.788;2023-05-31T12:46:38;3.57;;;2.73;;
50815;SDS011;39717;47.324;8.788;2023-05-31T12:51:59;6.70;;;3.07;;
50815;SDS011;39717;47.324;8.788;2023-05-31T12:54:30;3.43;;;2.67;;
50815;SDS011;39717;47.324;8.788;2023-05-31T12:56:57;5.00;;;2.40;;
50815;SDS011;39717;47.324;8.788;2023-05-31T12:59:24;2.10;;;1.90;;
50815;SDS011;39717;47.324;8.788;2023-05-31T13:01:51;3.33;;;2.70;;
50815;SDS011;39717;47.324;8.788;2023-05-31T13:04:17;2.93;;;2.63;;
50815;SDS011;39717;47.324;8.788;2023-05-31T13:06:43;3.43;;;2.77;;
50815;SDS011;39717;47.324;8.788;2023-05-31T13:09:11;3.70;;;2.47;;
50815;SDS011;39717;47.324;8.788;2023-05-31T13:11:37;4.80;;;2.60;;
50815;SDS011;39717;47.324;8.788;2023-05-31T13:14:04;3.10;;;2.57;;
50815;SDS011;39717;47.324;8.788;2023-05-31T13:16:31;3.37;;;2.53;;
50815;SDS011;39717;47.324;8.788;2023-05-31T13:18:58;4.13;;;2.90;;
50815;SDS011;39717;47.324;8.788;2023-05-31T13:21:25;3.03;;;2.63;;
50815;SDS011;39717;47.324;8.788;2023-05-31T13:23:52;2.70;;;2.47;;
50815;SDS011;39717;47.324;8.788;2023-05-31T13:26:18;2.93;;;2.50;;
50815;SDS011;39717;47.324;8.788;2023-05-31T13:28:45;3.53;;;2.93;;
50815;SDS011;39717;47.324;8.788;2023-05-31T13:31:11;3.77;;;2.60;;
50815;SDS011;39717;47.324;8.788;2023-05-31T13:33:37;2.60;;;2.30;;
50815;SDS011;39717;47.324;8.788;2023-05-31T13:36:04;2.90;;;2.50;;
50815;SDS011;39717;47.324;8.788;2023-05-31T13:38:30;5.53;;;2.60;;
50815;SDS011;39717;47.324;8.788;2023-05-31T13:40:56;4.70;;;2.90;;
50815;SDS011;39717;47.324;8.788;2023-05-31T13:43:22;3.77;;;2.50;;
50815;SDS011;39717;47.324;8.788;2023-05-31T13:45:49;3.03;;;2.37;;
50815;SDS011;39717;47.324;8.788;2023-05-31T13:48:15;3.60;;;2.60;;
50815;SDS011;39717;47.324;8.788;2023-05-31T13:50:42;3.57;;;2.67;;
50815;SDS011;39717;47.324;8.788;2023-05-31T13:53:08;4.17;;;3.13;;
50815;SDS011;39717;47.324;8.788;2023-05-31T13:55:37;2.70;;;2.50;;
50815;SDS011;39717;47.324;8.788;2023-05-31T13:58:04;4.27;;;2.57;;
50815;SDS011;39717;47.324;8.788;2023-05-31T14:00:30;3.80;;;2.63;;
50815;SDS011;39717;47.324;8.788;2023-05-31T14:02:57;4.20;;;2.70;;
50815;SDS011;39717;47.324;8.788;2023-05-31T14:05:23;4.73;;;3.10;;
50815;SDS011;39717;47.324;8.788;2023-05-31T14:07:53;2.50;;;2.20;;
50815;SDS011;39717;47.324;8.788;2023-05-31T14:10:19;2.60;;;2.33;;
50815;SDS011;39717;47.324;8.788;2023-05-31T14:12:45;4.57;;;2.53;;
50815;SDS011;39717;47.324;8.788;2023-05-31T14:15:16;4.67;;;2.47;;
50815;SDS011;39717;47.324;8.788;2023-05-31T14:17:42;2.80;;;2.23;;
50815;SDS011;39717;47.324;8.788;2023-05-31T14:20:09;5.87;;;2.40;;
50815;SDS011;39717;47.324;8.788;2023-05-31T14:22:36;3.43;;;2.50;;
50815;SDS011;39717;47.324;8.788;2023-05-31T14:25:03;3.83;;;2.53;;
50815;SDS011;39717;47.324;8.788;2023-05-31T14:27:30;2.93;;;2.57;;
50815;SDS011;39717;47.324;8.788;2023-05-31T14:29:56;4.30;;;2.50;;
50815;SDS011;39717;47.324;8.788;2023-05-31T14:32:22;3.07;;;2.27;;
50815;SDS011;39717;47.324;8.788;2023-05-31T14:34:48;4.80;;;2.50;;
50815;SDS011;39717;47.324;8.788;2023-05-31T14:37:14;2.63;;;2.40;;
50815;SDS011;39717;47.324;8.788;2023-05-31T14:39:41;3.30;;;2.53;;
50815;SDS011;39717;47.324;8.788;2023-05-31T14:42:10;3.30;;;2.40;;
50815;SDS011;39717;47.324;8.788;2023-05-31T14:44:36;6.27;;;2.50;;
50815;SDS011;39717;47.324;8.788;2023-05-31T14:47:02;3.90;;;2.33;;
50815;SDS011;39717;47.324;8.788;2023-05-31T14:49:29;4.53;;;2.80;;
50815;SDS011;39717;47.324;8.788;2023-05-31T14:51:55;2.83;;;2.23;;
50815;SDS011;39717;47.324;8.788;2023-05-31T14:54:22;2.80;;;2.30;;
50815;SDS011;39717;47.324;8.788;2023-05-31T14:56:49;2.60;;;2.20;;
50815;SDS011;39717;47.324;8.788;2023-05-31T14:59:17;2.30;;;2.10;;
50815;SDS011;39717;47.324;8.788;2023-05-31T15:01:43;4.10;;;2.53;;
50815;SDS011;39717;47.324;8.788;2023-05-31T15:04:10;3.53;;;2.20;;
50815;SDS011;39717;47.324;8.788;2023-05-31T15:06:36;4.70;;;2.57;;
50815;SDS011;39717;47.324;8.788;2023-05-31T15:09:02;3.60;;;2.13;;
50815;SDS011;39717;47.324;8.788;2023-05-31T15:11:29;2.60;;;2.40;;